<?xml version="1.0" encoding="UTF-8" standalone="no" ?>
<gpx xmlns="http://www.topografix.com/GPX/1/1" xmlns:xsi="http://www.w3.org/2001/XMLSchema-instance" xsi:schemaLocation="http://www.topografix.com/GPX/1/1 http://www.topografix.com/GPX/1/1/gpx.xsd" version="1.1" creator="VisuGPX - https://www.visugpx.com">
  <metadata>
    <name>Turquie_100points</name>
  </metadata>
  <trk>
    <name><![CDATA[Tour d'Europe: étape 574]]></name>
    <extensions>
      <line xmlns="http://www.topografix.com/GPX/gpx_style/0/2">
        <color>008800</color>
        <width>4</width>
      </line>
    </extensions>
    <trkseg>
      <trkpt lat="36.19982" lon="29.63729">
        <ele>49.321666</ele>
        <time>2022-01-23T07:24:38.619Z</time>
      </trkpt>
      <trkpt lat="36.20056" lon="29.63764">
        <ele>49.525402</ele>
        <time>2022-01-23T07:43:15.549Z</time>
      </trkpt>
      <trkpt lat="36.20251" lon="29.63612">
        <ele>41.955813</ele>
        <time>2022-01-23T07:44:33.539Z</time>
      </trkpt>
      <trkpt lat="36.20454" lon="29.63361">
        <ele>29.885958</ele>
        <time>2022-01-23T07:45:31.536Z</time>
      </trkpt>
      <trkpt lat="36.20564" lon="29.63096">
        <ele>31.380178</ele>
        <time>2022-01-23T07:46:31.538Z</time>
      </trkpt>
      <trkpt lat="36.20639" lon="29.62814">
        <ele>25.193425</ele>
        <time>2022-01-23T07:47:44.557Z</time>
      </trkpt>
      <trkpt lat="36.2069" lon="29.62548">
        <ele>32.836974</ele>
        <time>2022-01-23T07:49:00.560Z</time>
      </trkpt>
      <trkpt lat="36.20721" lon="29.6224">
        <ele>31.222451</ele>
        <time>2022-01-23T07:50:17.555Z</time>
      </trkpt>
      <trkpt lat="36.20754" lon="29.61994">
        <ele>27.245116</ele>
        <time>2022-01-23T07:51:28.551Z</time>
      </trkpt>
      <trkpt lat="36.20749" lon="29.61666">
        <ele>30.960405</ele>
        <time>2022-01-23T07:52:39.549Z</time>
      </trkpt>
      <trkpt lat="36.20831" lon="29.61413">
        <ele>39.215537</ele>
        <time>2022-01-23T07:54:31.551Z</time>
      </trkpt>
      <trkpt lat="36.20863" lon="29.61144">
        <ele>37.542092</ele>
        <time>2022-01-23T07:55:58.543Z</time>
      </trkpt>
      <trkpt lat="36.20818" lon="29.60841">
        <ele>21.579153</ele>
        <time>2022-01-23T07:56:52.575Z</time>
      </trkpt>
      <trkpt lat="36.20749" lon="29.60545">
        <ele>15.288218</ele>
        <time>2022-01-23T07:57:55.542Z</time>
      </trkpt>
      <trkpt lat="36.20728" lon="29.60263">
        <ele>21.197942</ele>
        <time>2022-01-23T07:59:08.548Z</time>
      </trkpt>
      <trkpt lat="36.20649" lon="29.59989">
        <ele>24.546304</ele>
        <time>2022-01-23T08:00:23.552Z</time>
      </trkpt>
      <trkpt lat="36.2044" lon="29.59925">
        <ele>22.170738</ele>
        <time>2022-01-23T08:01:40.553Z</time>
      </trkpt>
      <trkpt lat="36.20327" lon="29.59654">
        <ele>23.361546</ele>
        <time>2022-01-23T08:03:08.571Z</time>
      </trkpt>
      <trkpt lat="36.20311" lon="29.59381">
        <ele>25.136415</ele>
        <time>2022-01-23T08:04:55.552Z</time>
      </trkpt>
      <trkpt lat="36.20264" lon="29.59107">
        <ele>27.919392</ele>
        <time>2022-01-23T08:06:23.555Z</time>
      </trkpt>
      <trkpt lat="36.20219" lon="29.58832">
        <ele>27.05065</ele>
        <time>2022-01-23T08:08:11.568Z</time>
      </trkpt>
      <trkpt lat="36.20146" lon="29.5858">
        <ele>30.073813</ele>
        <time>2022-01-23T08:09:42.554Z</time>
      </trkpt>
      <trkpt lat="36.20297" lon="29.58392">
        <ele>31.405501</ele>
        <time>2022-01-23T08:11:48.540Z</time>
      </trkpt>
      <trkpt lat="36.20243" lon="29.58165">
        <ele>33.65051</ele>
        <time>2022-01-23T08:13:04.558Z</time>
      </trkpt>
      <trkpt lat="36.2026" lon="29.57932">
        <ele>35.215526</ele>
        <time>2022-01-23T08:14:42.557Z</time>
      </trkpt>
      <trkpt lat="36.2032" lon="29.57674">
        <ele>37.201978</ele>
        <time>2022-01-23T08:16:26.544Z</time>
      </trkpt>
      <trkpt lat="36.20289" lon="29.57396">
        <ele>39.812276</ele>
        <time>2022-01-23T08:18:13.555Z</time>
      </trkpt>
      <trkpt lat="36.20414" lon="29.57175">
        <ele>40.093836</ele>
        <time>2022-01-23T08:19:47.530Z</time>
      </trkpt>
      <trkpt lat="36.20625" lon="29.57072">
        <ele>36.165294</ele>
        <time>2022-01-23T08:21:05.564Z</time>
      </trkpt>
      <trkpt lat="36.20854" lon="29.57204">
        <ele>32.866697</ele>
        <time>2022-01-23T08:22:00.579Z</time>
      </trkpt>
      <trkpt lat="36.20954" lon="29.56972">
        <ele>44.654599</ele>
        <time>2022-01-23T08:23:48.550Z</time>
      </trkpt>
      <trkpt lat="36.21051" lon="29.56729">
        <ele>60.374504</ele>
        <time>2022-01-23T08:26:56.553Z</time>
      </trkpt>
      <trkpt lat="36.21069" lon="29.56472">
        <ele>74.013691</ele>
        <time>2022-01-23T08:29:49.556Z</time>
      </trkpt>
      <trkpt lat="36.21075" lon="29.56187">
        <ele>77.558623</ele>
        <time>2022-01-23T08:31:32.570Z</time>
      </trkpt>
      <trkpt lat="36.21082" lon="29.55882">
        <ele>75.973429</ele>
        <time>2022-01-23T08:32:59.549Z</time>
      </trkpt>
      <trkpt lat="36.21072" lon="29.55599">
        <ele>79.307012</ele>
        <time>2022-01-23T08:34:44.551Z</time>
      </trkpt>
      <trkpt lat="36.21125" lon="29.55329">
        <ele>83.743788</ele>
        <time>2022-01-23T08:36:40.531Z</time>
      </trkpt>
      <trkpt lat="36.21156" lon="29.55071">
        <ele>88.721899</ele>
        <time>2022-01-23T08:38:35.563Z</time>
      </trkpt>
      <trkpt lat="36.21266" lon="29.54872">
        <ele>103.904823</ele>
        <time>2022-01-23T08:41:06.565Z</time>
      </trkpt>
      <trkpt lat="36.21218" lon="29.54617">
        <ele>100.508141</ele>
        <time>2022-01-23T08:42:57.566Z</time>
      </trkpt>
      <trkpt lat="36.2123" lon="29.54308">
        <ele>93.955552</ele>
        <time>2022-01-23T08:44:03.580Z</time>
      </trkpt>
      <trkpt lat="36.21252" lon="29.54013">
        <ele>76.890432</ele>
        <time>2022-01-23T08:44:49.575Z</time>
      </trkpt>
      <trkpt lat="36.21169" lon="29.5367">
        <ele>53.013241</ele>
        <time>2022-01-23T08:45:35.554Z</time>
      </trkpt>
      <trkpt lat="36.21118" lon="29.53318">
        <ele>38.82206</ele>
        <time>2022-01-23T08:46:30.551Z</time>
      </trkpt>
      <trkpt lat="36.21052" lon="29.53033">
        <ele>42.157578</ele>
        <time>2022-01-23T08:47:57.569Z</time>
      </trkpt>
      <trkpt lat="36.2105" lon="29.52731">
        <ele>42.073676</ele>
        <time>2022-01-23T08:49:29.541Z</time>
      </trkpt>
      <trkpt lat="36.21071" lon="29.52458">
        <ele>44.286749</ele>
        <time>2022-01-23T08:51:09.550Z</time>
      </trkpt>
      <trkpt lat="36.21049" lon="29.52267">
        <ele>42.104429</ele>
        <time>2022-01-23T08:52:13.569Z</time>
      </trkpt>
      <trkpt lat="36.21014" lon="29.51974">
        <ele>42.957822</ele>
        <time>2022-01-23T08:53:37.555Z</time>
      </trkpt>
      <trkpt lat="36.20999" lon="29.51677">
        <ele>42.490358</ele>
        <time>2022-01-23T08:55:04.546Z</time>
      </trkpt>
      <trkpt lat="36.21115" lon="29.51416">
        <ele>34.378676</ele>
        <time>2022-01-23T08:56:24.545Z</time>
      </trkpt>
      <trkpt lat="36.21023" lon="29.51246">
        <ele>39.852696</ele>
        <time>2022-01-23T08:57:42.570Z</time>
      </trkpt>
      <trkpt lat="36.2099" lon="29.51029">
        <ele>54.443669</ele>
        <time>2022-01-23T08:59:51.565Z</time>
      </trkpt>
      <trkpt lat="36.21033" lon="29.50763">
        <ele>62.23494</ele>
        <time>2022-01-23T09:02:13.551Z</time>
      </trkpt>
      <trkpt lat="36.21036" lon="29.50483">
        <ele>70.556507</ele>
        <time>2022-01-23T09:03:56.574Z</time>
      </trkpt>
      <trkpt lat="36.20992" lon="29.5021">
        <ele>68.584562</ele>
        <time>2022-01-23T09:05:45.564Z</time>
      </trkpt>
      <trkpt lat="36.21015" lon="29.49912">
        <ele>51.646897</ele>
        <time>2022-01-23T09:06:49.551Z</time>
      </trkpt>
      <trkpt lat="36.21072" lon="29.49649">
        <ele>51.894427</ele>
        <time>2022-01-23T09:08:10.550Z</time>
      </trkpt>
      <trkpt lat="36.21133" lon="29.49366">
        <ele>53.836767</ele>
        <time>2022-01-23T09:09:46.576Z</time>
      </trkpt>
      <trkpt lat="36.21174" lon="29.49075">
        <ele>50.658432</ele>
        <time>2022-01-23T09:11:18.591Z</time>
      </trkpt>
      <trkpt lat="36.21205" lon="29.48763">
        <ele>41.276195</ele>
        <time>2022-01-23T09:12:17.563Z</time>
      </trkpt>
      <trkpt lat="36.21229" lon="29.48467">
        <ele>40.593452</ele>
        <time>2022-01-23T09:13:26.548Z</time>
      </trkpt>
      <trkpt lat="36.2128" lon="29.48181">
        <ele>36.531102</ele>
        <time>2022-01-23T09:14:31.561Z</time>
      </trkpt>
      <trkpt lat="36.21243" lon="29.47883">
        <ele>37.58949</ele>
        <time>2022-01-23T09:15:46.597Z</time>
      </trkpt>
      <trkpt lat="36.21308" lon="29.47599">
        <ele>36.3841</ele>
        <time>2022-01-23T09:17:13.565Z</time>
      </trkpt>
      <trkpt lat="36.21382" lon="29.47316">
        <ele>43.317018</ele>
        <time>2022-01-23T09:18:54.568Z</time>
      </trkpt>
      <trkpt lat="36.21485" lon="29.47073">
        <ele>45.271038</ele>
        <time>2022-01-23T09:20:42.543Z</time>
      </trkpt>
      <trkpt lat="36.21601" lon="29.46929">
        <ele>56.156372</ele>
        <time>2022-01-23T09:22:30.567Z</time>
      </trkpt>
      <trkpt lat="36.21737" lon="29.46694">
        <ele>43.139355</ele>
        <time>2022-01-23T09:23:32.599Z</time>
      </trkpt>
      <trkpt lat="36.21895" lon="29.46456">
        <ele>37.660045</ele>
        <time>2022-01-23T09:24:41.553Z</time>
      </trkpt>
      <trkpt lat="36.2203" lon="29.46207">
        <ele>37.278094</ele>
        <time>2022-01-23T09:25:52.565Z</time>
      </trkpt>
      <trkpt lat="36.22179" lon="29.45954">
        <ele>33.297275</ele>
        <time>2022-01-23T09:27:04.562Z</time>
      </trkpt>
      <trkpt lat="36.22233" lon="29.45688">
        <ele>31.820041</ele>
        <time>2022-01-23T09:28:10.589Z</time>
      </trkpt>
      <trkpt lat="36.22402" lon="29.45604">
        <ele>34.770147</ele>
        <time>2022-01-23T09:29:35.552Z</time>
      </trkpt>
      <trkpt lat="36.22615" lon="29.45532">
        <ele>37.237377</ele>
        <time>2022-01-23T09:30:59.558Z</time>
      </trkpt>
      <trkpt lat="36.2276" lon="29.45291">
        <ele>38.737485</ele>
        <time>2022-01-23T09:32:31.562Z</time>
      </trkpt>
      <trkpt lat="36.22841" lon="29.45029">
        <ele>42.251402</ele>
        <time>2022-01-23T09:33:52.551Z</time>
      </trkpt>
      <trkpt lat="36.23041" lon="29.44933">
        <ele>63.857661</ele>
        <time>2022-01-23T09:36:19.573Z</time>
      </trkpt>
      <trkpt lat="36.22915" lon="29.44797">
        <ele>81.62321</ele>
        <time>2022-01-23T09:37:41.567Z</time>
      </trkpt>
      <trkpt lat="36.23033" lon="29.4456">
        <ele>68.844916</ele>
        <time>2022-01-23T09:39:51.558Z</time>
      </trkpt>
      <trkpt lat="36.23064" lon="29.44291">
        <ele>84.328662</ele>
        <time>2022-01-23T09:42:30.588Z</time>
      </trkpt>
      <trkpt lat="36.23121" lon="29.44043">
        <ele>93.474499</ele>
        <time>2022-01-23T09:45:03.575Z</time>
      </trkpt>
      <trkpt lat="36.23163" lon="29.43742">
        <ele>95.904061</ele>
        <time>2022-01-23T09:48:38.577Z</time>
      </trkpt>
      <trkpt lat="36.23177" lon="29.43449">
        <ele>87.254803</ele>
        <time>2022-01-23T09:49:35.564Z</time>
      </trkpt>
      <trkpt lat="36.23335" lon="29.43238">
        <ele>81.563808</ele>
        <time>2022-01-23T09:50:27.560Z</time>
      </trkpt>
      <trkpt lat="36.23368" lon="29.42959">
        <ele>89.987475</ele>
        <time>2022-01-23T09:52:17.563Z</time>
      </trkpt>
      <trkpt lat="36.23395" lon="29.42688">
        <ele>106.884459</ele>
        <time>2022-01-23T09:55:05.594Z</time>
      </trkpt>
      <trkpt lat="36.23543" lon="29.425">
        <ele>119.556867</ele>
        <time>2022-01-23T09:58:06.552Z</time>
      </trkpt>
      <trkpt lat="36.23716" lon="29.42662">
        <ele>120.1045</ele>
        <time>2022-01-23T09:59:43.564Z</time>
      </trkpt>
      <trkpt lat="36.23937" lon="29.42741">
        <ele>124.719656</ele>
        <time>2022-01-23T10:01:39.580Z</time>
      </trkpt>
      <trkpt lat="36.24217" lon="29.42754">
        <ele>121.338593</ele>
        <time>2022-01-23T10:02:32.567Z</time>
      </trkpt>
      <trkpt lat="36.24455" lon="29.42751">
        <ele>124.685885</ele>
        <time>2022-01-23T10:03:38.570Z</time>
      </trkpt>
      <trkpt lat="36.24678" lon="29.427">
        <ele>131.58077</ele>
        <time>2022-01-23T10:05:46.594Z</time>
      </trkpt>
      <trkpt lat="36.24885" lon="29.42529">
        <ele>132.594378</ele>
        <time>2022-01-23T10:07:32.556Z</time>
      </trkpt>
      <trkpt lat="36.25125" lon="29.42312">
        <ele>115.506043</ele>
        <time>2022-01-23T10:08:15.560Z</time>
      </trkpt>
      <trkpt lat="36.25333" lon="29.42129">
        <ele>104.313515</ele>
        <time>2022-01-23T10:09:11.577Z</time>
      </trkpt>
      <trkpt lat="36.25534" lon="29.41977">
        <ele>99.932709</ele>
        <time>2022-01-23T10:10:01.571Z</time>
      </trkpt>
      <trkpt lat="36.25779" lon="29.41979">
        <ele>94.389203</ele>
        <time>2022-01-23T10:12:24.575Z</time>
      </trkpt>
      <trkpt lat="36.26006" lon="29.41915">
        <ele>87.434563</ele>
        <time>2022-01-23T10:13:45.570Z</time>
      </trkpt>
      <trkpt lat="36.26279" lon="29.41839">
        <ele>78.014161</ele>
        <time>2022-01-23T10:14:39.590Z</time>
      </trkpt>
      <trkpt lat="36.26563" lon="29.41733">
        <ele>83.07102</ele>
        <time>2022-01-23T10:15:58.584Z</time>
      </trkpt>
      <trkpt lat="36.26772" lon="29.41663">
        <ele>110.520063</ele>
        <time>2022-01-23T10:19:09.570Z</time>
      </trkpt>
      <trkpt lat="36.26971" lon="29.41536">
        <ele>120.990902</ele>
        <time>2022-01-23T10:21:22.553Z</time>
      </trkpt>
      <trkpt lat="36.27154" lon="29.41399">
        <ele>138.571231</ele>
        <time>2022-01-23T10:24:04.566Z</time>
      </trkpt>
      <trkpt lat="36.27294" lon="29.41199">
        <ele>156.610433</ele>
        <time>2022-01-23T10:26:52.576Z</time>
      </trkpt>
      <trkpt lat="36.27272" lon="29.40928">
        <ele>182.619826</ele>
        <time>2022-01-23T10:29:42.569Z</time>
      </trkpt>
      <trkpt lat="36.27134" lon="29.40723">
        <ele>216.08939</ele>
        <time>2022-01-23T10:32:41.572Z</time>
      </trkpt>
      <trkpt lat="36.2698" lon="29.40527">
        <ele>217.650869</ele>
        <time>2022-01-23T10:35:49.555Z</time>
      </trkpt>
      <trkpt lat="36.26913" lon="29.40285">
        <ele>236.098681</ele>
        <time>2022-01-23T10:38:45.589Z</time>
      </trkpt>
      <trkpt lat="36.26982" lon="29.40028">
        <ele>238.552947</ele>
        <time>2022-01-23T10:42:00.608Z</time>
      </trkpt>
      <trkpt lat="36.27077" lon="29.39784">
        <ele>255.161463</ele>
        <time>2022-01-23T10:45:16.604Z</time>
      </trkpt>
      <trkpt lat="36.27186" lon="29.39552">
        <ele>257.615007</ele>
        <time>2022-01-23T10:50:46.595Z</time>
      </trkpt>
      <trkpt lat="36.2742" lon="29.39436">
        <ele>242.679007</ele>
        <time>2022-01-23T10:51:37.584Z</time>
      </trkpt>
      <trkpt lat="36.27638" lon="29.39201">
        <ele>234.56133</ele>
        <time>2022-01-23T10:52:21.585Z</time>
      </trkpt>
      <trkpt lat="36.2785" lon="29.3889">
        <ele>210.140993</ele>
        <time>2022-01-23T10:53:07.581Z</time>
      </trkpt>
      <trkpt lat="36.27854" lon="29.38521">
        <ele>195.291616</ele>
        <time>2022-01-23T10:55:13.582Z</time>
      </trkpt>
      <trkpt lat="36.27664" lon="29.38231">
        <ele>176.316249</ele>
        <time>2022-01-23T10:55:59.590Z</time>
      </trkpt>
      <trkpt lat="36.2749" lon="29.37917">
        <ele>147.288606</ele>
        <time>2022-01-23T10:56:45.575Z</time>
      </trkpt>
      <trkpt lat="36.27386" lon="29.37582">
        <ele>122.587702</ele>
        <time>2022-01-23T10:57:29.583Z</time>
      </trkpt>
      <trkpt lat="36.27272" lon="29.37224">
        <ele>100.612154</ele>
        <time>2022-01-23T10:58:15.591Z</time>
      </trkpt>
      <trkpt lat="36.27052" lon="29.36904">
        <ele>75.045246</ele>
        <time>2022-01-23T10:59:01.575Z</time>
      </trkpt>
      <trkpt lat="36.27059" lon="29.36556">
        <ele>50.011833</ele>
        <time>2022-01-23T10:59:40.565Z</time>
      </trkpt>
      <trkpt lat="36.27274" lon="29.36349">
        <ele>46.225148</ele>
        <time>2022-01-23T11:00:39.583Z</time>
      </trkpt>
      <trkpt lat="36.27517" lon="29.36211">
        <ele>39.282058</ele>
        <time>2022-01-23T11:01:45.576Z</time>
      </trkpt>
      <trkpt lat="36.27744" lon="29.36067">
        <ele>33.321121</ele>
        <time>2022-01-23T11:02:44.578Z</time>
      </trkpt>
      <trkpt lat="36.27937" lon="29.3585">
        <ele>26.768634</ele>
        <time>2022-01-23T11:03:53.582Z</time>
      </trkpt>
      <trkpt lat="36.28124" lon="29.35648">
        <ele>20.882751</ele>
        <time>2022-01-23T11:05:02.597Z</time>
      </trkpt>
      <trkpt lat="36.2832" lon="29.35458">
        <ele>30.369461</ele>
        <time>2022-01-23T11:06:11.585Z</time>
      </trkpt>
      <trkpt lat="36.28552" lon="29.35363">
        <ele>41.642743</ele>
        <time>2022-01-23T11:07:20.591Z</time>
      </trkpt>
      <trkpt lat="36.28746" lon="29.35181">
        <ele>33.045925</ele>
        <time>2022-01-23T11:08:26.580Z</time>
      </trkpt>
      <trkpt lat="36.28891" lon="29.349">
        <ele>16.18849</ele>
        <time>2022-01-23T11:09:35.577Z</time>
      </trkpt>
      <trkpt lat="36.29035" lon="29.34685">
        <ele>17.30199</ele>
        <time>2022-01-23T11:11:30.628Z</time>
      </trkpt>
      <trkpt lat="36.29173" lon="29.34472">
        <ele>29.40447</ele>
        <time>2022-01-23T11:13:46.588Z</time>
      </trkpt>
      <trkpt lat="36.29245" lon="29.34198">
        <ele>40.425212</ele>
        <time>2022-01-23T11:15:26.587Z</time>
      </trkpt>
      <trkpt lat="36.29195" lon="29.33908">
        <ele>40.09859</ele>
        <time>2022-01-23T11:16:14.585Z</time>
      </trkpt>
      <trkpt lat="36.29301" lon="29.33632">
        <ele>26.633969</ele>
        <time>2022-01-23T11:17:05.589Z</time>
      </trkpt>
      <trkpt lat="36.29479" lon="29.33404">
        <ele>21.913692</ele>
        <time>2022-01-23T11:18:04.581Z</time>
      </trkpt>
      <trkpt lat="36.29622" lon="29.33179">
        <ele>29.419964</ele>
        <time>2022-01-23T11:19:13.584Z</time>
      </trkpt>
      <trkpt lat="36.29703" lon="29.32918">
        <ele>36.223786</ele>
        <time>2022-01-23T11:20:22.583Z</time>
      </trkpt>
      <trkpt lat="36.29508" lon="29.32769">
        <ele>37.66437</ele>
        <time>2022-01-23T11:21:21.592Z</time>
      </trkpt>
      <trkpt lat="36.29298" lon="29.32607">
        <ele>35.996684</ele>
        <time>2022-01-23T11:22:16.576Z</time>
      </trkpt>
      <trkpt lat="36.29094" lon="29.32379">
        <ele>36.643542</ele>
        <time>2022-01-23T11:23:25.595Z</time>
      </trkpt>
      <trkpt lat="36.28894" lon="29.32149">
        <ele>36.506223</ele>
        <time>2022-01-23T11:24:34.591Z</time>
      </trkpt>
      <trkpt lat="36.28699" lon="29.31919">
        <ele>32.540007</ele>
        <time>2022-01-23T11:25:42.573Z</time>
      </trkpt>
      <trkpt lat="36.28492" lon="29.3191">
        <ele>29.794353</ele>
        <time>2022-01-23T11:26:48.588Z</time>
      </trkpt>
      <trkpt lat="36.28307" lon="29.32124">
        <ele>40.583932</ele>
        <time>2022-01-23T11:27:57.585Z</time>
      </trkpt>
      <trkpt lat="36.28071" lon="29.32158">
        <ele>49.704128</ele>
        <time>2022-01-23T11:29:17.586Z</time>
      </trkpt>
      <trkpt lat="36.27855" lon="29.32091">
        <ele>44.054073</ele>
        <time>2022-01-23T11:30:34.576Z</time>
      </trkpt>
      <trkpt lat="36.27625" lon="29.32051">
        <ele>42.943222</ele>
        <time>2022-01-23T11:32:00.568Z</time>
      </trkpt>
      <trkpt lat="36.27529" lon="29.32007">
        <ele>42.943222</ele>
        <time>2022-01-23T11:34:09.081Z</time>
      </trkpt>
    </trkseg>
  </trk>
</gpx>